Bremerton Weather

VFR

The latest METAR data is included below. Please check the age of the METAR for up to the minute accuracy.

KPWT 280355Z AUTO 03005KT 10SM CLR 23/14 A3012 RMK AO1 (VFR)

The observation was taken 05 minutes ago
The winds favor: Runway 2
Crosswind: Left 1 knots
Headwind: 5 knots
Temperature: 73°F
Relative humidity: 57%
Pressure altitude: 261
Density altitude: 1253

Conditions at Nearby Airports

Shelton
Tacoma
Olympia
Boeing Field
Paine Field: 2000 - 10 SM
Legend:
LIFR
IFR
MVFR
VFR

Links

Aviationweather.gov

DUATS

Bremerton Webcam

Give Flight Service a call at 1 800 WX BRIEF before taking off!